sensor_id;sensor_type;location;lat;lon;timestamp;temperature;humidity
3262;DHT22;1643;47.746;9.000;2023-12-20T00:00:57;7.00;99.90
3262;DHT22;1643;47.746;9.000;2023-12-20T00:03:23;6.90;99.90
3262;DHT22;1643;47.746;9.000;2023-12-20T00:05:49;6.90;99.90
3262;DHT22;1643;47.746;9.000;2023-12-20T00:08:15;6.90;99.90
3262;DHT22;1643;47.746;9.000;2023-12-20T00:10:40;6.90;99.90
3262;DHT22;1643;47.746;9.000;2023-12-20T00:13:06;6.90;99.90
3262;DHT22;1643;47.746;9.000;2023-12-20T00:15:36;6.90;99.90
3262;DHT22;1643;47.746;9.000;2023-12-20T00:18:01;6.90;99.90
3262;DHT22;1643;47.746;9.000;2023-12-20T00:20:28;6.80;99.90
3262;DHT22;1643;47.746;9.000;2023-12-20T00:22:56;6.70;99.90
3262;DHT22;1643;47.746;9.000;2023-12-20T00:25:23;6.60;99.90
3262;DHT22;1643;47.746;9.000;2023-12-20T00:27:49;6.70;99.90
3262;DHT22;1643;47.746;9.000;2023-12-20T00:30:14;6.70;99.90
3262;DHT22;1643;47.746;9.000;2023-12-20T00:32:40;6.70;99.90
3262;DHT22;1643;47.746;9.000;2023-12-20T00:35:12;6.70;99.90
3262;DHT22;1643;47.746;9.000;2023-12-20T00:37:37;6.70;99.90
3262;DHT22;1643;47.746;9.000;2023-12-20T00:40:03;6.70;99.90
3262;DHT22;1643;47.746;9.000;2023-12-20T00:42:29;6.80;99.90
3262;DHT22;1643;47.746;9.000;2023-12-20T00:44:55;6.80;99.90
3262;DHT22;1643;47.746;9.000;2023-12-20T00:47:20;6.70;99.90
3262;DHT22;1643;47.746;9.000;2023-12-20T00:49:47;6.80;99.90
3262;DHT22;1643;47.746;9.000;2023-12-20T00:52:13;6.70;99.90
3262;DHT22;1643;47.746;9.000;2023-12-20T00:54:38;6.70;99.90
3262;DHT22;1643;47.746;9.000;2023-12-20T00:57:04;6.80;99.90
3262;DHT22;1643;47.746;9.000;2023-12-20T00:59:30;6.70;99.90
3262;DHT22;1643;47.746;9.000;2023-12-20T01:01:55;6.80;99.90
3262;DHT22;1643;47.746;9.000;2023-12-20T01:04:21;6.70;99.90
3262;DHT22;1643;47.746;9.000;2023-12-20T01:06:47;6.90;99.90
3262;DHT22;1643;47.746;9.000;2023-12-20T01:09:12;6.80;99.90
3262;DHT22;1643;47.746;9.000;2023-12-20T01:11:38;6.80;99.90
3262;DHT22;1643;47.746;9.000;2023-12-20T01:14:03;6.80;99.90
3262;DHT22;1643;47.746;9.000;2023-12-20T01:16:29;6.70;99.90
3262;DHT22;1643;47.746;9.000;2023-12-20T01:18:55;6.70;99.90
3262;DHT22;1643;47.746;9.000;2023-12-20T01:21:20;6.70;99.90
3262;DHT22;1643;47.746;9.000;2023-12-20T01:23:46;6.80;99.90
3262;DHT22;1643;47.746;9.000;2023-12-20T01:26:12;6.70;99.90
3262;DHT22;1643;47.746;9.000;2023-12-20T01:28:38;6.70;99.90
3262;DHT22;1643;47.746;9.000;2023-12-20T01:31:03;6.70;99.90
3262;DHT22;1643;47.746;9.000;2023-12-20T01:33:29;6.70;99.90
3262;DHT22;1643;47.746;9.000;2023-12-20T01:35:55;6.60;99.90
3262;DHT22;1643;47.746;9.000;2023-12-20T01:38:20;6.80;99.90
3262;DHT22;1643;47.746;9.000;2023-12-20T01:40:46;6.70;99.90
3262;DHT22;1643;47.746;9.000;2023-12-20T01:43:12;6.60;99.90
3262;DHT22;1643;47.746;9.000;2023-12-20T01:45:38;6.60;99.90
3262;DHT22;1643;47.746;9.000;2023-12-20T01:48:05;6.60;99.90
3262;DHT22;1643;47.746;9.000;2023-12-20T01:50:31;6.60;99.90
3262;DHT22;1643;47.746;9.000;2023-12-20T01:52:59;6.60;99.90
3262;DHT22;1643;47.746;9.000;2023-12-20T01:55:27;6.60;99.90
3262;DHT22;1643;47.746;9.000;2023-12-20T01:57:55;6.60;99.90
3262;DHT22;1643;47.746;9.000;2023-12-20T02:00:22;6.60;99.90
3262;DHT22;1643;47.746;9.000;2023-12-20T02:02:53;6.70;99.90
3262;DHT22;1643;47.746;9.000;2023-12-20T02:05:21;6.80;99.90
3262;DHT22;1643;47.746;9.000;2023-12-20T02:07:47;6.90;99.90
3262;DHT22;1643;47.746;9.000;2023-12-20T02:10:12;6.90;99.90
3262;DHT22;1643;47.746;9.000;2023-12-20T02:12:38;6.90;99.90
3262;DHT22;1643;47.746;9.000;2023-12-20T02:15:04;6.90;99.90
3262;DHT22;1643;47.746;9.000;2023-12-20T02:17:31;6.90;99.90
3262;DHT22;1643;47.746;9.000;2023-12-20T02:19:57;7.00;99.90
3262;DHT22;1643;47.746;9.000;2023-12-20T02:22:23;6.80;99.90
3262;DHT22;1643;47.746;9.000;2023-12-20T02:24:48;6.70;99.90
3262;DHT22;1643;47.746;9.000;2023-12-20T02:27:15;6.70;99.90
3262;DHT22;1643;47.746;9.000;2023-12-20T02:29:43;6.70;99.90
3262;DHT22;1643;47.746;9.000;2023-12-20T02:32:09;6.70;99.90
3262;DHT22;1643;47.746;9.000;2023-12-20T02:34:34;6.70;99.90
3262;DHT22;1643;47.746;9.000;2023-12-20T02:37:00;6.80;99.90
3262;DHT22;1643;47.746;9.000;2023-12-20T02:39:26;6.80;99.90
3262;DHT22;1643;47.746;9.000;2023-12-20T02:41:51;7.00;99.90
3262;DHT22;1643;47.746;9.000;2023-12-20T02:44:17;6.90;99.90
3262;DHT22;1643;47.746;9.000;2023-12-20T02:46:42;6.70;99.90
3262;DHT22;1643;47.746;9.000;2023-12-20T02:49:08;6.70;99.90
3262;DHT22;1643;47.746;9.000;2023-12-20T02:51:34;6.70;99.90
3262;DHT22;1643;47.746;9.000;2023-12-20T02:53:59;6.80;99.90
3262;DHT22;1643;47.746;9.000;2023-12-20T02:56:25;6.70;99.90
3262;DHT22;1643;47.746;9.000;2023-12-20T02:58:50;6.80;99.90
3262;DHT22;1643;47.746;9.000;2023-12-20T03:01:16;6.80;99.90
3262;DHT22;1643;47.746;9.000;2023-12-20T03:03:42;6.80;99.90
3262;DHT22;1643;47.746;9.000;2023-12-20T03:06:07;6.80;99.90
3262;DHT22;1643;47.746;9.000;2023-12-20T03:08:33;6.70;99.90
3262;DHT22;1643;47.746;9.000;2023-12-20T03:10:59;6.70;99.90
3262;DHT22;1643;47.746;9.000;2023-12-20T03:13:25;6.80;99.90
3262;DHT22;1643;47.746;9.000;2023-12-20T03:15:50;6.70;99.90
3262;DHT22;1643;47.746;9.000;2023-12-20T03:18:16;6.80;99.90
3262;DHT22;1643;47.746;9.000;2023-12-20T03:20:42;6.80;99.90
3262;DHT22;1643;47.746;9.000;2023-12-20T03:23:07;6.80;99.90
3262;DHT22;1643;47.746;9.000;2023-12-20T03:25:33;6.80;99.90
3262;DHT22;1643;47.746;9.000;2023-12-20T03:27:59;6.80;99.90
3262;DHT22;1643;47.746;9.000;2023-12-20T03:30:24;6.80;99.90
3262;DHT22;1643;47.746;9.000;2023-12-20T03:32:50;6.80;99.90
3262;DHT22;1643;47.746;9.000;2023-12-20T03:35:15;6.90;99.90
3262;DHT22;1643;47.746;9.000;2023-12-20T03:37:41;6.80;99.90
3262;DHT22;1643;47.746;9.000;2023-12-20T03:40:07;6.80;99.90
3262;DHT22;1643;47.746;9.000;2023-12-20T03:42:33;6.80;99.90
3262;DHT22;1643;47.746;9.000;2023-12-20T03:44:58;6.80;99.90
3262;DHT22;1643;47.746;9.000;2023-12-20T03:47:24;6.80;99.90
3262;DHT22;1643;47.746;9.000;2023-12-20T03:49:49;6.80;99.90
3262;DHT22;1643;47.746;9.000;2023-12-20T03:52:15;6.90;99.90
3262;DHT22;1643;47.746;9.000;2023-12-20T03:54:41;6.80;99.90
3262;DHT22;1643;47.746;9.000;2023-12-20T03:57:09;6.80;99.90
3262;DHT22;1643;47.746;9.000;2023-12-20T03:59:36;6.70;99.90
3262;DHT22;1643;47.746;9.000;2023-12-20T04:02:01;6.60;99.90
3262;DHT22;1643;47.746;9.000;2023-12-20T04:04:27;6.60;99.90
3262;DHT22;1643;47.746;9.000;2023-12-20T04:06:53;6.60;99.90
3262;DHT22;1643;47.746;9.000;2023-12-20T04:09:19;6.60;99.90
3262;DHT22;1643;47.746;9.000;2023-12-20T04:11:44;6.50;99.90
3262;DHT22;1643;47.746;9.000;2023-12-20T04:14:10;6.50;99.90
3262;DHT22;1643;47.746;9.000;2023-12-20T04:16:35;6.50;99.90
3262;DHT22;1643;47.746;9.000;2023-12-20T04:19:01;6.50;99.90
3262;DHT22;1643;47.746;9.000;2023-12-20T04:21:27;6.50;99.90
3262;DHT22;1643;47.746;9.000;2023-12-20T04:23:53;6.60;99.90
3262;DHT22;1643;47.746;9.000;2023-12-20T04:26:19;6.50;99.90
3262;DHT22;1643;47.746;9.000;2023-12-20T04:28:44;6.50;99.90
3262;DHT22;1643;47.746;9.000;2023-12-20T04:31:10;6.50;99.90
3262;DHT22;1643;47.746;9.000;2023-12-20T04:33:36;6.60;99.90
3262;DHT22;1643;47.746;9.000;2023-12-20T04:36:01;6.60;99.90
3262;DHT22;1643;47.746;9.000;2023-12-20T04:38:27;6.60;99.90
3262;DHT22;1643;47.746;9.000;2023-12-20T04:40:52;6.50;99.90
3262;DHT22;1643;47.746;9.000;2023-12-20T04:43:18;6.40;99.90
3262;DHT22;1643;47.746;9.000;2023-12-20T04:45:44;6.40;99.90
3262;DHT22;1643;47.746;9.000;2023-12-20T04:48:09;6.40;99.90
3262;DHT22;1643;47.746;9.000;2023-12-20T04:50:35;6.40;99.90
3262;DHT22;1643;47.746;9.000;2023-12-20T04:53:01;6.40;99.90
3262;DHT22;1643;47.746;9.000;2023-12-20T04:55:27;6.30;99.90
3262;DHT22;1643;47.746;9.000;2023-12-20T04:57:52;6.30;99.90
3262;DHT22;1643;47.746;9.000;2023-12-20T05:00:18;6.40;99.90
3262;DHT22;1643;47.746;9.000;2023-12-20T05:02:44;6.40;99.90
3262;DHT22;1643;47.746;9.000;2023-12-20T05:05:09;6.40;99.90
3262;DHT22;1643;47.746;9.000;2023-12-20T05:07:35;6.40;99.90
3262;DHT22;1643;47.746;9.000;2023-12-20T05:10:01;6.40;99.90
3262;DHT22;1643;47.746;9.000;2023-12-20T05:12:27;6.40;99.90
3262;DHT22;1643;47.746;9.000;2023-12-20T05:14:53;7.00;99.90
3262;DHT22;1643;47.746;9.000;2023-12-20T05:17:18;6.50;99.90
3262;DHT22;1643;47.746;9.000;2023-12-20T05:19:45;6.40;99.90
3262;DHT22;1643;47.746;9.000;2023-12-20T05:22:11;6.60;99.90
3262;DHT22;1643;47.746;9.000;2023-12-20T05:24:37;6.50;99.90
3262;DHT22;1643;47.746;9.000;2023-12-20T05:27:03;6.50;99.90
3262;DHT22;1643;47.746;9.000;2023-12-20T05:29:28;6.50;99.90
3262;DHT22;1643;47.746;9.000;2023-12-20T05:31:54;6.40;99.90
3262;DHT22;1643;47.746;9.000;2023-12-20T05:34:19;6.50;99.90
3262;DHT22;1643;47.746;9.000;2023-12-20T05:36:46;6.50;99.90
3262;DHT22;1643;47.746;9.000;2023-12-20T05:39:11;6.60;99.90
3262;DHT22;1643;47.746;9.000;2023-12-20T05:41:37;6.50;99.90
3262;DHT22;1643;47.746;9.000;2023-12-20T05:44:03;6.60;99.90
3262;DHT22;1643;47.746;9.000;2023-12-20T05:46:28;6.50;99.90
3262;DHT22;1643;47.746;9.000;2023-12-20T05:48:54;6.50;99.90
3262;DHT22;1643;47.746;9.000;2023-12-20T05:51:20;6.60;99.90
3262;DHT22;1643;47.746;9.000;2023-12-20T05:53:45;6.60;99.90
3262;DHT22;1643;47.746;9.000;2023-12-20T05:56:11;6.50;99.90
3262;DHT22;1643;47.746;9.000;2023-12-20T05:58:38;6.60;99.90
3262;DHT22;1643;47.746;9.000;2023-12-20T06:01:04;6.50;99.90
3262;DHT22;1643;47.746;9.000;2023-12-20T06:03:30;6.50;99.90
3262;DHT22;1643;47.746;9.000;2023-12-20T06:05:56;6.50;99.90
3262;DHT22;1643;47.746;9.000;2023-12-20T06:08:22;6.60;99.90
3262;DHT22;1643;47.746;9.000;2023-12-20T06:10:49;6.60;99.90
3262;DHT22;1643;47.746;9.000;2023-12-20T06:13:14;6.60;99.90
3262;DHT22;1643;47.746;9.000;2023-12-20T06:15:40;6.50;99.90
3262;DHT22;1643;47.746;9.000;2023-12-20T06:18:06;6.50;99.90
3262;DHT22;1643;47.746;9.000;2023-12-20T06:20:32;6.50;99.90
3262;DHT22;1643;47.746;9.000;2023-12-20T06:22:58;6.40;99.90
3262;DHT22;1643;47.746;9.000;2023-12-20T06:25:24;6.40;99.90
3262;DHT22;1643;47.746;9.000;2023-12-20T06:27:50;6.50;99.90
3262;DHT22;1643;47.746;9.000;2023-12-20T06:30:16;6.50;99.90
3262;DHT22;1643;47.746;9.000;2023-12-20T06:32:42;6.40;99.90
3262;DHT22;1643;47.746;9.000;2023-12-20T06:35:09;6.50;99.90
3262;DHT22;1643;47.746;9.000;2023-12-20T06:37:35;6.60;99.90
3262;DHT22;1643;47.746;9.000;2023-12-20T06:40:00;6.50;99.90
3262;DHT22;1643;47.746;9.000;2023-12-20T06:42:26;6.60;99.90
3262;DHT22;1643;47.746;9.000;2023-12-20T06:44:52;6.60;99.90
3262;DHT22;1643;47.746;9.000;2023-12-20T06:47:18;6.50;99.90
3262;DHT22;1643;47.746;9.000;2023-12-20T06:49:43;6.60;99.90
3262;DHT22;1643;47.746;9.000;2023-12-20T06:52:09;6.50;99.90
3262;DHT22;1643;47.746;9.000;2023-12-20T06:54:35;6.50;99.90
3262;DHT22;1643;47.746;9.000;2023-12-20T06:57:01;6.50;99.90
3262;DHT22;1643;47.746;9.000;2023-12-20T06:59:28;6.50;99.90
3262;DHT22;1643;47.746;9.000;2023-12-20T07:01:54;6.60;99.90
3262;DHT22;1643;47.746;9.000;2023-12-20T07:04:20;6.60;99.90
3262;DHT22;1643;47.746;9.000;2023-12-20T07:06:50;6.60;99.90
3262;DHT22;1643;47.746;9.000;2023-12-20T07:09:22;6.60;99.90
3262;DHT22;1643;47.746;9.000;2023-12-20T07:11:48;6.60;99.90
3262;DHT22;1643;47.746;9.000;2023-12-20T07:14:14;6.60;99.90
3262;DHT22;1643;47.746;9.000;2023-12-20T07:16:40;6.70;99.90
3262;DHT22;1643;47.746;9.000;2023-12-20T07:19:06;6.70;99.90
3262;DHT22;1643;47.746;9.000;2023-12-20T07:21:31;6.70;99.90
3262;DHT22;1643;47.746;9.000;2023-12-20T07:23:57;6.80;99.90
3262;DHT22;1643;47.746;9.000;2023-12-20T07:26:23;6.70;99.90
3262;DHT22;1643;47.746;9.000;2023-12-20T07:28:49;6.80;99.90
3262;DHT22;1643;47.746;9.000;2023-12-20T07:31:18;6.80;99.90
3262;DHT22;1643;47.746;9.000;2023-12-20T07:33:44;6.90;99.90
3262;DHT22;1643;47.746;9.000;2023-12-20T07:36:09;6.90;99.90
3262;DHT22;1643;47.746;9.000;2023-12-20T07:38:35;6.80;99.90
3262;DHT22;1643;47.746;9.000;2023-12-20T07:41:01;6.80;99.90
3262;DHT22;1643;47.746;9.000;2023-12-20T07:43:27;6.70;99.90
3262;DHT22;1643;47.746;9.000;2023-12-20T07:45:52;6.90;99.90
3262;DHT22;1643;47.746;9.000;2023-12-20T07:48:18;6.90;99.90
3262;DHT22;1643;47.746;9.000;2023-12-20T07:50:43;6.90;99.90
3262;DHT22;1643;47.746;9.000;2023-12-20T07:53:09;6.70;99.90
3262;DHT22;1643;47.746;9.000;2023-12-20T07:55:35;6.80;99.90
3262;DHT22;1643;47.746;9.000;2023-12-20T07:58:00;6.80;99.90
3262;DHT22;1643;47.746;9.000;2023-12-20T08:00:27;6.90;99.90
3262;DHT22;1643;47.746;9.000;2023-12-20T08:02:52;6.80;99.90
3262;DHT22;1643;47.746;9.000;2023-12-20T08:05:18;6.90;99.90
3262;DHT22;1643;47.746;9.000;2023-12-20T08:07:44;6.90;99.90
3262;DHT22;1643;47.746;9.000;2023-12-20T08:10:09;6.90;99.90
3262;DHT22;1643;47.746;9.000;2023-12-20T08:12:35;6.80;99.90
3262;DHT22;1643;47.746;9.000;2023-12-20T08:15:01;6.80;99.90
3262;DHT22;1643;47.746;9.000;2023-12-20T08:17:27;6.70;99.90
3262;DHT22;1643;47.746;9.000;2023-12-20T08:19:53;6.80;99.90
3262;DHT22;1643;47.746;9.000;2023-12-20T08:22:18;6.70;99.90
3262;DHT22;1643;47.746;9.000;2023-12-20T08:24:44;6.90;99.90
3262;DHT22;1643;47.746;9.000;2023-12-20T08:27:10;7.00;99.90
3262;DHT22;1643;47.746;9.000;2023-12-20T08:29:35;6.90;99.90
3262;DHT22;1643;47.746;9.000;2023-12-20T08:32:01;6.80;99.90
3262;DHT22;1643;47.746;9.000;2023-12-20T08:34:27;6.80;99.90
3262;DHT22;1643;47.746;9.000;2023-12-20T08:36:53;6.80;99.90
3262;DHT22;1643;47.746;9.000;2023-12-20T08:39:19;6.90;99.90
3262;DHT22;1643;47.746;9.000;2023-12-20T08:41:44;7.00;99.90
3262;DHT22;1643;47.746;9.000;2023-12-20T08:44:10;7.00;99.90
3262;DHT22;1643;47.746;9.000;2023-12-20T08:46:36;7.00;99.90
3262;DHT22;1643;47.746;9.000;2023-12-20T08:49:02;7.00;99.90
3262;DHT22;1643;47.746;9.000;2023-12-20T08:51:28;7.00;99.90
3262;DHT22;1643;47.746;9.000;2023-12-20T08:53:54;6.90;99.90
3262;DHT22;1643;47.746;9.000;2023-12-20T08:56:20;7.00;99.90
3262;DHT22;1643;47.746;9.000;2023-12-20T08:58:46;7.00;99.90
3262;DHT22;1643;47.746;9.000;2023-12-20T09:01:13;7.00;99.90
3262;DHT22;1643;47.746;9.000;2023-12-20T09:03:39;6.90;99.90
3262;DHT22;1643;47.746;9.000;2023-12-20T09:06:05;6.90;99.90
3262;DHT22;1643;47.746;9.000;2023-12-20T09:08:31;7.00;99.90
3262;DHT22;1643;47.746;9.000;2023-12-20T09:10:56;7.00;99.90
3262;DHT22;1643;47.746;9.000;2023-12-20T09:13:22;7.00;99.90
3262;DHT22;1643;47.746;9.000;2023-12-20T09:15:54;7.00;99.90
3262;DHT22;1643;47.746;9.000;2023-12-20T09:18:20;7.00;99.90
3262;DHT22;1643;47.746;9.000;2023-12-20T09:20:46;7.10;99.90
3262;DHT22;1643;47.746;9.000;2023-12-20T09:23:11;7.10;99.90
3262;DHT22;1643;47.746;9.000;2023-12-20T09:25:37;7.00;99.90
3262;DHT22;1643;47.746;9.000;2023-12-20T09:28:03;7.10;99.90
3262;DHT22;1643;47.746;9.000;2023-12-20T09:30:29;7.10;99.90
3262;DHT22;1643;47.746;9.000;2023-12-20T09:32:55;7.10;99.90
3262;DHT22;1643;47.746;9.000;2023-12-20T09:35:21;7.00;99.90
3262;DHT22;1643;47.746;9.000;2023-12-20T09:37:46;7.00;99.90
3262;DHT22;1643;47.746;9.000;2023-12-20T09:40:13;7.20;99.90
3262;DHT22;1643;47.746;9.000;2023-12-20T09:42:58;7.40;99.90
3262;DHT22;1643;47.746;9.000;2023-12-20T09:45:24;7.40;99.90
3262;DHT22;1643;47.746;9.000;2023-12-20T09:47:51;7.40;99.90
3262;DHT22;1643;47.746;9.000;2023-12-20T09:50:18;7.20;99.90
3262;DHT22;1643;47.746;9.000;2023-12-20T09:52:47;7.20;99.90
3262;DHT22;1643;47.746;9.000;2023-12-20T09:55:16;7.20;99.90
3262;DHT22;1643;47.746;9.000;2023-12-20T09:57:42;7.30;99.90
3262;DHT22;1643;47.746;9.000;2023-12-20T10:00:08;7.30;99.90
3262;DHT22;1643;47.746;9.000;2023-12-20T10:02:35;7.20;99.90
3262;DHT22;1643;47.746;9.000;2023-12-20T10:05:06;7.30;99.90
3262;DHT22;1643;47.746;9.000;2023-12-20T10:07:35;7.20;99.90
3262;DHT22;1643;47.746;9.000;2023-12-20T10:10:02;7.30;99.90
3262;DHT22;1643;47.746;9.000;2023-12-20T10:12:27;7.20;99.90
3262;DHT22;1643;47.746;9.000;2023-12-20T10:14:53;7.20;99.90
3262;DHT22;1643;47.746;9.000;2023-12-20T10:17:19;7.30;99.90
3262;DHT22;1643;47.746;9.000;2023-12-20T10:19:46;7.30;99.90
3262;DHT22;1643;47.746;9.000;2023-12-20T10:22:12;7.30;99.90
3262;DHT22;1643;47.746;9.000;2023-12-20T10:24:38;7.30;99.90
3262;DHT22;1643;47.746;9.000;2023-12-20T10:27:06;7.30;99.90
3262;DHT22;1643;47.746;9.000;2023-12-20T10:29:33;7.40;99.90
3262;DHT22;1643;47.746;9.000;2023-12-20T10:31:59;7.40;99.90
3262;DHT22;1643;47.746;9.000;2023-12-20T10:34:25;7.40;99.90
3262;DHT22;1643;47.746;9.000;2023-12-20T10:36:52;7.40;99.90
3262;DHT22;1643;47.746;9.000;2023-12-20T10:39:18;7.30;99.90
3262;DHT22;1643;47.746;9.000;2023-12-20T10:41:46;7.50;99.90
3262;DHT22;1643;47.746;9.000;2023-12-20T10:44:13;7.60;99.90
3262;DHT22;1643;47.746;9.000;2023-12-20T10:46:40;7.40;99.90
3262;DHT22;1643;47.746;9.000;2023-12-20T10:49:07;7.60;99.90
3262;DHT22;1643;47.746;9.000;2023-12-20T10:51:34;7.60;99.90
3262;DHT22;1643;47.746;9.000;2023-12-20T10:54:00;7.50;99.90
3262;DHT22;1643;47.746;9.000;2023-12-20T10:56:31;7.40;99.90
3262;DHT22;1643;47.746;9.000;2023-12-20T10:59:01;7.40;99.90
3262;DHT22;1643;47.746;9.000;2023-12-20T11:01:29;7.70;99.90
3262;DHT22;1643;47.746;9.000;2023-12-20T11:03:55;7.60;99.90
3262;DHT22;1643;47.746;9.000;2023-12-20T11:06:40;7.70;99.90
3262;DHT22;1643;47.746;9.000;2023-12-20T11:14:22;7.70;99.90
3262;DHT22;1643;47.746;9.000;2023-12-20T11:16:49;7.70;99.90
3262;DHT22;1643;47.746;9.000;2023-12-20T11:19:16;7.80;99.90
3262;DHT22;1643;47.746;9.000;2023-12-20T11:21:42;8.00;99.90
3262;DHT22;1643;47.746;9.000;2023-12-20T11:24:09;7.90;99.90
3262;DHT22;1643;47.746;9.000;2023-12-20T11:26:35;8.00;99.90
3262;DHT22;1643;47.746;9.000;2023-12-20T11:29:29;7.80;99.90
3262;DHT22;1643;47.746;9.000;2023-12-20T11:31:55;7.90;99.90
3262;DHT22;1643;47.746;9.000;2023-12-20T11:34:20;7.80;99.90
3262;DHT22;1643;47.746;9.000;2023-12-20T11:36:46;7.80;99.90
3262;DHT22;1643;47.746;9.000;2023-12-20T11:39:12;7.80;99.90
3262;DHT22;1643;47.746;9.000;2023-12-20T11:41:44;7.90;99.90
3262;DHT22;1643;47.746;9.000;2023-12-20T11:44:10;7.80;99.90
3262;DHT22;1643;47.746;9.000;2023-12-20T11:46:37;7.90;99.90
3262;DHT22;1643;47.746;9.000;2023-12-20T11:49:02;8.20;99.90
3262;DHT22;1643;47.746;9.000;2023-12-20T11:51:28;8.60;99.90
3262;DHT22;1643;47.746;9.000;2023-12-20T11:53:54;8.70;99.90
3262;DHT22;1643;47.746;9.000;2023-12-20T11:56:19;8.50;99.90
3262;DHT22;1643;47.746;9.000;2023-12-20T11:58:45;8.40;99.90
3262;DHT22;1643;47.746;9.000;2023-12-20T12:01:11;8.40;99.90
3262;DHT22;1643;47.746;9.000;2023-12-20T12:03:36;8.40;99.90
3262;DHT22;1643;47.746;9.000;2023-12-20T12:06:03;8.50;99.90
3262;DHT22;1643;47.746;9.000;2023-12-20T12:08:30;8.50;99.90
3262;DHT22;1643;47.746;9.000;2023-12-20T12:10:56;8.70;99.90
3262;DHT22;1643;47.746;9.000;2023-12-20T12:13:22;8.60;99.90
3262;DHT22;1643;47.746;9.000;2023-12-20T12:15:48;8.70;99.90
3262;DHT22;1643;47.746;9.000;2023-12-20T12:18:16;8.70;99.90
3262;DHT22;1643;47.746;9.000;2023-12-20T12:20:42;9.10;99.90
3262;DHT22;1643;47.746;9.000;2023-12-20T12:23:07;9.00;99.90
3262;DHT22;1643;47.746;9.000;2023-12-20T12:25:37;8.70;99.90
3262;DHT22;1643;47.746;9.000;2023-12-20T12:28:03;8.60;99.90
3262;DHT22;1643;47.746;9.000;2023-12-20T12:30:29;8.50;99.90
3262;DHT22;1643;47.746;9.000;2023-12-20T12:32:56;8.40;99.90
3262;DHT22;1643;47.746;9.000;2023-12-20T12:35:22;8.20;99.90
3262;DHT22;1643;47.746;9.000;2023-12-20T12:37:48;8.20;99.90
3262;DHT22;1643;47.746;9.000;2023-12-20T12:40:15;8.50;99.90
3262;DHT22;1643;47.746;9.000;2023-12-20T12:42:41;8.80;99.90
3262;DHT22;1643;47.746;9.000;2023-12-20T12:45:08;8.90;99.90
3262;DHT22;1643;47.746;9.000;2023-12-20T12:47:34;8.80;99.90
3262;DHT22;1643;47.746;9.000;2023-12-20T12:50:00;8.90;99.90
3262;DHT22;1643;47.746;9.000;2023-12-20T12:52:26;8.90;99.90
3262;DHT22;1643;47.746;9.000;2023-12-20T12:54:52;9.20;99.90
3262;DHT22;1643;47.746;9.000;2023-12-20T12:57:18;9.20;99.90
3262;DHT22;1643;47.746;9.000;2023-12-20T12:59:45;9.20;99.90
3262;DHT22;1643;47.746;9.000;2023-12-20T13:02:14;9.00;99.90
3262;DHT22;1643;47.746;9.000;2023-12-20T13:04:40;8.70;99.90
3262;DHT22;1643;47.746;9.000;2023-12-20T13:07:07;8.50;99.90
3262;DHT22;1643;47.746;9.000;2023-12-20T13:09:33;8.40;99.90
3262;DHT22;1643;47.746;9.000;2023-12-20T13:11:59;8.40;99.90
3262;DHT22;1643;47.746;9.000;2023-12-20T13:14:25;8.30;99.90
3262;DHT22;1643;47.746;9.000;2023-12-20T13:16:50;8.10;99.90
3262;DHT22;1643;47.746;9.000;2023-12-20T13:19:16;7.90;99.90
3262;DHT22;1643;47.746;9.000;2023-12-20T13:21:42;7.90;99.90
3262;DHT22;1643;47.746;9.000;2023-12-20T13:24:07;7.70;99.90
3262;DHT22;1643;47.746;9.000;2023-12-20T13:26:33;7.80;99.90
3262;DHT22;1643;47.746;9.000;2023-12-20T13:28:59;7.70;99.90
3262;DHT22;1643;47.746;9.000;2023-12-20T13:31:24;7.70;99.90
3262;DHT22;1643;47.746;9.000;2023-12-20T13:33:50;7.70;99.90
3262;DHT22;1643;47.746;9.000;2023-12-20T13:36:17;7.70;99.90
3262;DHT22;1643;47.746;9.000;2023-12-20T13:38:43;7.60;99.90
3262;DHT22;1643;47.746;9.000;2023-12-20T13:41:09;7.60;99.90
3262;DHT22;1643;47.746;9.000;2023-12-20T13:43:34;7.60;99.90
3262;DHT22;1643;47.746;9.000;2023-12-20T13:46:00;7.70;99.90
3262;DHT22;1643;47.746;9.000;2023-12-20T13:48:26;7.90;99.90
3262;DHT22;1643;47.746;9.000;2023-12-20T13:50:52;8.10;99.90
3262;DHT22;1643;47.746;9.000;2023-12-20T13:53:17;8.30;99.90
3262;DHT22;1643;47.746;9.000;2023-12-20T13:55:44;8.30;99.90
3262;DHT22;1643;47.746;9.000;2023-12-20T13:58:10;8.50;99.90
3262;DHT22;1643;47.746;9.000;2023-12-20T14:00:36;8.40;99.90
3262;DHT22;1643;47.746;9.000;2023-12-20T14:03:03;8.40;99.90
3262;DHT22;1643;47.746;9.000;2023-12-20T14:05:29;8.10;99.90
3262;DHT22;1643;47.746;9.000;2023-12-20T14:07:55;8.00;99.90
3262;DHT22;1643;47.746;9.000;2023-12-20T14:10:23;7.80;99.90
3262;DHT22;1643;47.746;9.000;2023-12-20T14:12:49;7.80;99.90
3262;DHT22;1643;47.746;9.000;2023-12-20T14:15:15;7.80;99.90
3262;DHT22;1643;47.746;9.000;2023-12-20T14:17:41;7.70;99.90
3262;DHT22;1643;47.746;9.000;2023-12-20T14:20:09;7.70;99.90
3262;DHT22;1643;47.746;9.000;2023-12-20T14:22:37;8.20;99.90
3262;DHT22;1643;47.746;9.000;2023-12-20T14:25:04;8.50;99.90
3262;DHT22;1643;47.746;9.000;2023-12-20T14:27:30;8.70;99.90
3262;DHT22;1643;47.746;9.000;2023-12-20T14:29:56;9.00;99.90
3262;DHT22;1643;47.746;9.000;2023-12-20T14:32:22;8.90;99.90
3262;DHT22;1643;47.746;9.000;2023-12-20T14:34:47;8.70;99.90
3262;DHT22;1643;47.746;9.000;2023-12-20T14:37:13;8.40;99.90
3262;DHT22;1643;47.746;9.000;2023-12-20T14:39:39;8.10;99.90
3262;DHT22;1643;47.746;9.000;2023-12-20T14:42:09;8.10;99.90
3262;DHT22;1643;47.746;9.000;2023-12-20T14:44:41;7.90;99.90
3262;DHT22;1643;47.746;9.000;2023-12-20T14:47:07;7.80;99.90
3262;DHT22;1643;47.746;9.000;2023-12-20T14:49:33;7.80;99.90
3262;DHT22;1643;47.746;9.000;2023-12-20T14:51:59;7.80;99.90
3262;DHT22;1643;47.746;9.000;2023-12-20T14:54:25;8.00;99.90
3262;DHT22;1643;47.746;9.000;2023-12-20T14:56:50;8.00;99.90
3262;DHT22;1643;47.746;9.000;2023-12-20T14:59:16;7.90;99.90
3262;DHT22;1643;47.746;9.000;2023-12-20T15:01:42;9.00;99.90
3262;DHT22;1643;47.746;9.000;2023-12-20T15:04:09;9.80;99.90
3262;DHT22;1643;47.746;9.000;2023-12-20T15:06:35;10.20;99.90
3262;DHT22;1643;47.746;9.000;2023-12-20T15:09:00;9.70;99.90
3262;DHT22;1643;47.746;9.000;2023-12-20T15:11:28;9.00;99.90
3262;DHT22;1643;47.746;9.000;2023-12-20T15:13:54;8.60;99.90
3262;DHT22;1643;47.746;9.000;2023-12-20T15:16:24;8.50;99.90
3262;DHT22;1643;47.746;9.000;2023-12-20T15:18:51;8.50;99.90
3262;DHT22;1643;47.746;9.000;2023-12-20T15:21:17;8.10;99.90
3262;DHT22;1643;47.746;9.000;2023-12-20T15:23:43;7.70;99.90
3262;DHT22;1643;47.746;9.000;2023-12-20T15:26:18;7.70;99.90
3262;DHT22;1643;47.746;9.000;2023-12-20T15:28:44;7.30;99.90
3262;DHT22;1643;47.746;9.000;2023-12-20T15:31:10;7.20;99.90
3262;DHT22;1643;47.746;9.000;2023-12-20T15:33:36;7.20;99.90
3262;DHT22;1643;47.746;9.000;2023-12-20T15:36:01;6.90;99.90
3262;DHT22;1643;47.746;9.000;2023-12-20T15:38:28;6.90;99.90
3262;DHT22;1643;47.746;9.000;2023-12-20T15:40:53;6.80;99.90
3262;DHT22;1643;47.746;9.000;2023-12-20T15:43:19;6.70;99.90
3262;DHT22;1643;47.746;9.000;2023-12-20T15:45:45;6.60;99.90
3262;DHT22;1643;47.746;9.000;2023-12-20T15:48:11;6.50;99.90
3262;DHT22;1643;47.746;9.000;2023-12-20T15:50:43;6.40;99.90
3262;DHT22;1643;47.746;9.000;2023-12-20T15:53:09;6.30;99.90
3262;DHT22;1643;47.746;9.000;2023-12-20T15:55:35;6.40;99.90
3262;DHT22;1643;47.746;9.000;2023-12-20T15:58:00;6.30;99.90
3262;DHT22;1643;47.746;9.000;2023-12-20T16:00:26;6.30;99.90
3262;DHT22;1643;47.746;9.000;2023-12-20T16:02:52;6.20;99.90
3262;DHT22;1643;47.746;9.000;2023-12-20T16:05:18;6.30;99.90
3262;DHT22;1643;47.746;9.000;2023-12-20T16:07:44;6.30;99.90
3262;DHT22;1643;47.746;9.000;2023-12-20T16:10:10;6.30;99.90
3262;DHT22;1643;47.746;9.000;2023-12-20T16:12:36;6.10;99.90
3262;DHT22;1643;47.746;9.000;2023-12-20T16:15:02;6.10;99.90